sensor_id;sensor_type;location;lat;lon;timestamp;pressure;altitude;pressure_sealevel;temperature;humidity
6096;BME280;25081;42.698;23.298;2023-04-19T00:00:11;94880.72;;;10.21;77.92
6096;BME280;25081;42.698;23.298;2023-04-19T00:02:21;94874.70;;;10.23;77.23
6096;BME280;25081;42.698;23.298;2023-04-19T00:04:32;94869.95;;;10.25;77.25
6096;BME280;25081;42.698;23.298;2023-04-19T00:06:42;94872.97;;;10.29;77.31
6096;BME280;25081;42.698;23.298;2023-04-19T00:08:53;94867.41;;;10.30;77.20
6096;BME280;25081;42.698;23.298;2023-04-19T00:11:03;94870.17;;;10.15;77.56
6096;BME280;25081;42.698;23.298;2023-04-19T00:13:14;94867.05;;;10.18;78.09
6096;BME280;25081;42.698;23.298;2023-04-19T00:15:25;94866.19;;;10.24;77.73
6096;BME280;25081;42.698;23.298;2023-04-19T00:17:35;94866.17;;;10.15;77.56
6096;BME280;25081;42.698;23.298;2023-04-19T00:19:46;94865.22;;;10.00;78.16
6096;BME280;25081;42.698;23.298;2023-04-19T00:21:56;94866.20;;;9.96;78.84
6096;BME280;25081;42.698;23.298;2023-04-19T00:24:08;94860.36;;;9.97;78.93
6096;BME280;25081;42.698;23.298;2023-04-19T00:26:18;94864.70;;;10.00;78.64
6096;BME280;25081;42.698;23.298;2023-04-19T00:28:29;94860.64;;;10.07;78.31
6096;BME280;25081;42.698;23.298;2023-04-19T00:30:39;94861.80;;;10.11;78.59
6096;BME280;25081;42.698;23.298;2023-04-19T00:32:50;94854.48;;;10.16;78.43
6096;BME280;25081;42.698;23.298;2023-04-19T00:35:01;94855.14;;;10.11;77.85
6096;BME280;25081;42.698;23.298;2023-04-19T00:37:11;94856.66;;;9.98;78.32
6096;BME280;25081;42.698;23.298;2023-04-19T00:39:21;94858.06;;;9.91;78.81
6096;BME280;25081;42.698;23.298;2023-04-19T00:41:32;94858.52;;;9.88;79.17
6096;BME280;25081;42.698;23.298;2023-04-19T00:43:42;94856.73;;;9.82;79.24
6096;BME280;25081;42.698;23.298;2023-04-19T00:45:53;94854.08;;;9.82;79.31
6096;BME280;25081;42.698;23.298;2023-04-19T00:48:04;94855.41;;;9.82;79.38
6096;BME280;25081;42.698;23.298;2023-04-19T00:50:14;94848.31;;;9.94;79.27
6096;BME280;25081;42.698;23.298;2023-04-19T00:52:25;94847.69;;;10.01;78.92
6096;BME280;25081;42.698;23.298;2023-04-19T00:54:35;94847.61;;;10.08;78.56
6096;BME280;25081;42.698;23.298;2023-04-19T00:56:46;94848.65;;;10.07;78.52
6096;BME280;25081;42.698;23.298;2023-04-19T00:58:56;94850.98;;;9.94;78.92
6096;BME280;25081;42.698;23.298;2023-04-19T01:01:07;94848.22;;;9.92;79.32
6096;BME280;25081;42.698;23.298;2023-04-19T01:03:17;94849.48;;;9.89;79.80
6096;BME280;25081;42.698;23.298;2023-04-19T01:05:28;94846.38;;;9.83;79.90
6096;BME280;25081;42.698;23.298;2023-04-19T01:07:39;94846.84;;;9.80;80.40
6096;BME280;25081;42.698;23.298;2023-04-19T01:09:49;94840.77;;;9.73;80.85
6096;BME280;25081;42.698;23.298;2023-04-19T01:12:00;94843.08;;;9.60;81.57
6096;BME280;25081;42.698;23.298;2023-04-19T01:14:11;94844.70;;;9.61;82.06
6096;BME280;25081;42.698;23.298;2023-04-19T01:16:21;94840.06;;;9.66;81.82
6096;BME280;25081;42.698;23.298;2023-04-19T01:18:32;94834.34;;;9.62;82.12
6096;BME280;25081;42.698;23.298;2023-04-19T01:20:43;94837.46;;;9.68;82.20
6096;BME280;25081;42.698;23.298;2023-04-19T01:22:53;94832.59;;;9.65;82.23
6096;BME280;25081;42.698;23.298;2023-04-19T01:25:05;94832.14;;;9.68;82.06
6096;BME280;25081;42.698;23.298;2023-04-19T01:27:15;94830.65;;;9.63;82.05
6096;BME280;25081;42.698;23.298;2023-04-19T01:29:26;94837.17;;;9.58;82.66
6096;BME280;25081;42.698;23.298;2023-04-19T01:31:37;94837.83;;;9.54;82.90
6096;BME280;25081;42.698;23.298;2023-04-19T01:33:47;94839.90;;;9.61;82.98
6096;BME280;25081;42.698;23.298;2023-04-19T01:35:58;94841.69;;;9.67;82.84
6096;BME280;25081;42.698;23.298;2023-04-19T01:38:08;94841.06;;;9.74;82.62
6096;BME280;25081;42.698;23.298;2023-04-19T01:40:20;94843.23;;;9.65;82.67
6096;BME280;25081;42.698;23.298;2023-04-19T01:42:30;94834.64;;;9.54;82.79
6096;BME280;25081;42.698;23.298;2023-04-19T01:44:41;94832.82;;;9.36;83.68
6096;BME280;25081;42.698;23.298;2023-04-19T01:46:51;94836.19;;;9.34;84.12
6096;BME280;25081;42.698;23.298;2023-04-19T01:49:02;94830.36;;;9.35;83.88
6096;BME280;25081;42.698;23.298;2023-04-19T01:51:12;94840.41;;;9.33;84.06
6096;BME280;25081;42.698;23.298;2023-04-19T01:53:23;94835.26;;;9.47;83.99
6096;BME280;25081;42.698;23.298;2023-04-19T01:55:33;94832.08;;;9.48;83.52
6096;BME280;25081;42.698;23.298;2023-04-19T01:57:44;94836.36;;;9.39;83.77
6096;BME280;25081;42.698;23.298;2023-04-19T01:59:54;94833.83;;;9.44;83.99
6096;BME280;25081;42.698;23.298;2023-04-19T02:02:07;94832.82;;;9.36;83.92
6096;BME280;25081;42.698;23.298;2023-04-19T02:04:19;94833.23;;;9.24;84.42
6096;BME280;25081;42.698;23.298;2023-04-19T02:06:29;94832.19;;;9.16;84.82
6096;BME280;25081;42.698;23.298;2023-04-19T02:08:40;94834.79;;;9.23;84.85
6096;BME280;25081;42.698;23.298;2023-04-19T02:10:50;94827.91;;;9.15;85.04
6096;BME280;25081;42.698;23.298;2023-04-19T02:13:01;94830.86;;;9.16;85.05
6096;BME280;25081;42.698;23.298;2023-04-19T02:15:12;94831.18;;;9.17;85.02
6096;BME280;25081;42.698;23.298;2023-04-19T02:17:22;94831.67;;;9.16;85.41
6096;BME280;25081;42.698;23.298;2023-04-19T02:19:32;94832.35;;;9.21;85.17
6096;BME280;25081;42.698;23.298;2023-04-19T02:21:43;94830.87;;;9.25;85.10
6096;BME280;25081;42.698;23.298;2023-04-19T02:23:54;94829.41;;;9.29;84.73
6096;BME280;25081;42.698;23.298;2023-04-19T02:26:05;94824.22;;;9.25;84.60
6096;BME280;25081;42.698;23.298;2023-04-19T02:28:15;94827.67;;;9.16;85.08
6096;BME280;25081;42.698;23.298;2023-04-19T02:30:25;94826.34;;;9.16;85.05
6096;BME280;25081;42.698;23.298;2023-04-19T02:32:36;94827.98;;;9.08;85.10
6096;BME280;25081;42.698;23.298;2023-04-19T02:34:46;94826.02;;;8.97;85.62
6096;BME280;25081;42.698;23.298;2023-04-19T02:36:57;94822.95;;;9.00;85.55
6096;BME280;25081;42.698;23.298;2023-04-19T02:39:07;94817.22;;;8.87;85.80
6096;BME280;25081;42.698;23.298;2023-04-19T02:41:19;94819.53;;;8.93;85.94
6096;BME280;25081;42.698;23.298;2023-04-19T02:43:29;94820.64;;;8.95;85.93
6096;BME280;25081;42.698;23.298;2023-04-19T02:45:40;94820.00;;;8.99;85.89
6096;BME280;25081;42.698;23.298;2023-04-19T02:47:50;94821.69;;;9.03;85.81
6096;BME280;25081;42.698;23.298;2023-04-19T02:50:01;94821.55;;;8.98;85.78
6096;BME280;25081;42.698;23.298;2023-04-19T02:52:11;94823.37;;;8.97;85.75
6096;BME280;25081;42.698;23.298;2023-04-19T02:54:22;94823.24;;;9.01;85.85
6096;BME280;25081;42.698;23.298;2023-04-19T02:56:32;94817.06;;;9.07;85.29
6096;BME280;25081;42.698;23.298;2023-04-19T02:58:43;94816.55;;;9.08;85.00
6096;BME280;25081;42.698;23.298;2023-04-19T03:00:53;94826.20;;;9.02;85.44
6096;BME280;25081;42.698;23.298;2023-04-19T03:03:04;94824.00;;;9.08;85.34
6096;BME280;25081;42.698;23.298;2023-04-19T03:05:14;94826.66;;;9.08;85.10
6096;BME280;25081;42.698;23.298;2023-04-19T03:07:25;94823.37;;;8.97;85.36
6096;BME280;25081;42.698;23.298;2023-04-19T03:09:35;94826.11;;;8.91;85.52
6096;BME280;25081;42.698;23.298;2023-04-19T03:11:46;94819.84;;;9.03;85.79
6096;BME280;25081;42.698;23.298;2023-04-19T03:13:56;94818.05;;;8.97;85.05
6096;BME280;25081;42.698;23.298;2023-04-19T03:16:07;94818.79;;;8.95;85.70
6096;BME280;25081;42.698;23.298;2023-04-19T03:18:18;94824.38;;;8.87;85.80
6096;BME280;25081;42.698;23.298;2023-04-19T03:20:28;94824.90;;;8.86;85.70
6096;BME280;25081;42.698;23.298;2023-04-19T03:22:39;94818.43;;;8.92;85.82
6096;BME280;25081;42.698;23.298;2023-04-19T03:24:49;94821.38;;;8.93;85.70
6096;BME280;25081;42.698;23.298;2023-04-19T03:27:00;94818.41;;;8.82;85.72
6096;BME280;25081;42.698;23.298;2023-04-19T03:29:10;94816.56;;;8.83;86.04
6096;BME280;25081;42.698;23.298;2023-04-19T03:31:21;94817.15;;;8.85;86.06
6096;BME280;25081;42.698;23.298;2023-04-19T03:33:31;94817.82;;;8.80;86.09
6096;BME280;25081;42.698;23.298;2023-04-19T03:35:42;94819.27;;;8.76;85.78
6096;BME280;25081;42.698;23.298;2023-04-19T03:37:52;94829.08;;;8.76;86.09
6096;BME280;25081;42.698;23.298;2023-04-19T03:40:02;94821.09;;;8.67;86.36
6096;BME280;25081;42.698;23.298;2023-04-19T03:42:13;94825.77;;;8.71;86.68
6096;BME280;25081;42.698;23.298;2023-04-19T03:44:23;94823.41;;;8.72;86.29
6096;BME280;25081;42.698;23.298;2023-04-19T03:46:34;94824.88;;;8.77;86.14
6096;BME280;25081;42.698;23.298;2023-04-19T03:48:44;94820.19;;;8.79;86.10
6096;BME280;25081;42.698;23.298;2023-04-19T03:50:55;94820.59;;;8.76;86.26
6096;BME280;25081;42.698;23.298;2023-04-19T03:53:05;94817.64;;;8.75;86.03
6096;BME280;25081;42.698;23.298;2023-04-19T03:55:16;94821.34;;;8.74;86.18
6096;BME280;25081;42.698;23.298;2023-04-19T03:57:27;94816.69;;;8.70;86.71
6096;BME280;25081;42.698;23.298;2023-04-19T03:59:37;94823.89;;;8.63;86.84
6096;BME280;25081;42.698;23.298;2023-04-19T04:01:48;94818.28;;;8.62;87.07
6096;BME280;25081;42.698;23.298;2023-04-19T04:03:58;94813.27;;;8.63;87.02
6096;BME280;25081;42.698;23.298;2023-04-19T04:06:09;94818.28;;;8.62;87.30
6096;BME280;25081;42.698;23.298;2023-04-19T04:08:19;94816.26;;;8.57;87.56
6096;BME280;25081;42.698;23.298;2023-04-19T04:10:30;94813.11;;;8.67;87.12
6096;BME280;25081;42.698;23.298;2023-04-19T04:12:40;94822.20;;;8.68;87.08
6096;BME280;25081;42.698;23.298;2023-04-19T04:14:51;94823.84;;;8.69;86.62
6096;BME280;25081;42.698;23.298;2023-04-19T04:17:01;94823.48;;;8.75;86.46
6096;BME280;25081;42.698;23.298;2023-04-19T04:19:11;94825.42;;;8.86;85.96
6096;BME280;25081;42.698;23.298;2023-04-19T04:21:23;94822.36;;;8.98;85.63
6096;BME280;25081;42.698;23.298;2023-04-19T04:23:33;94829.62;;;8.84;85.47
6096;BME280;25081;42.698;23.298;2023-04-19T04:25:44;94824.69;;;8.79;86.09
6096;BME280;25081;42.698;23.298;2023-04-19T04:27:54;94826.55;;;8.63;86.30
6096;BME280;25081;42.698;23.298;2023-04-19T04:30:07;94828.13;;;8.70;86.48
6096;BME280;25081;42.698;23.298;2023-04-19T04:32:17;94833.07;;;8.76;85.95
6096;BME280;25081;42.698;23.298;2023-04-19T04:34:27;94838.09;;;8.75;86.21
6096;BME280;25081;42.698;23.298;2023-04-19T04:36:38;94839.34;;;8.72;86.07
6096;BME280;25081;42.698;23.298;2023-04-19T04:38:49;94840.53;;;8.76;86.03
6096;BME280;25081;42.698;23.298;2023-04-19T04:40:59;94840.83;;;8.77;85.92
6096;BME280;25081;42.698;23.298;2023-04-19T04:43:09;94836.17;;;8.73;86.20
6096;BME280;25081;42.698;23.298;2023-04-19T04:45:20;94832.19;;;8.73;86.53
6096;BME280;25081;42.698;23.298;2023-04-19T04:47:32;94834.70;;;8.77;86.15
6096;BME280;25081;42.698;23.298;2023-04-19T04:49:42;94833.47;;;8.79;85.78
6096;BME280;25081;42.698;23.298;2023-04-19T04:51:53;94839.20;;;8.76;85.92
6096;BME280;25081;42.698;23.298;2023-04-19T04:54:04;94831.67;;;8.73;86.31
6096;BME280;25081;42.698;23.298;2023-04-19T04:56:14;94837.02;;;8.82;85.90
6096;BME280;25081;42.698;23.298;2023-04-19T04:58:24;94833.77;;;8.80;85.87
6096;BME280;25081;42.698;23.298;2023-04-19T05:00:35;94833.61;;;8.84;85.74
6096;BME280;25081;42.698;23.298;2023-04-19T05:02:46;94838.88;;;8.91;85.51
6096;BME280;25081;42.698;23.298;2023-04-19T05:04:59;94841.05;;;9.01;85.18
6096;BME280;25081;42.698;23.298;2023-04-19T05:07:09;94837.12;;;9.03;84.74
6096;BME280;25081;42.698;23.298;2023-04-19T05:09:20;94844.14;;;9.07;84.62
6096;BME280;25081;42.698;23.298;2023-04-19T05:11:30;94840.69;;;9.15;84.53
6096;BME280;25081;42.698;23.298;2023-04-19T05:13:41;94840.69;;;9.15;84.35
6096;BME280;25081;42.698;23.298;2023-04-19T05:15:52;94845.34;;;9.11;84.64
6096;BME280;25081;42.698;23.298;2023-04-19T05:18:04;94840.03;;;9.11;84.34
6096;BME280;25081;42.698;23.298;2023-04-19T05:20:14;94847.41;;;9.09;84.77
6096;BME280;25081;42.698;23.298;2023-04-19T05:22:24;94842.67;;;9.02;84.85
6096;BME280;25081;42.698;23.298;2023-04-19T05:24:35;94847.70;;;9.10;85.27
6096;BME280;25081;42.698;23.298;2023-04-19T05:26:45;94847.77;;;9.03;85.20
6096;BME280;25081;42.698;23.298;2023-04-19T05:28:56;94851.02;;;9.14;85.19
6096;BME280;25081;42.698;23.298;2023-04-19T05:31:06;94844.97;;;9.16;84.56
6096;BME280;25081;42.698;23.298;2023-04-19T05:33:17;94849.28;;;9.17;84.95
6096;BME280;25081;42.698;23.298;2023-04-19T05:35:27;94851.51;;;9.39;84.73
6096;BME280;25081;42.698;23.298;2023-04-19T05:37:38;94853.79;;;9.54;83.93
6096;BME280;25081;42.698;23.298;2023-04-19T05:39:48;94849.57;;;9.55;83.32
6096;BME280;25081;42.698;23.298;2023-04-19T05:41:59;94858.75;;;9.59;82.91
6096;BME280;25081;42.698;23.298;2023-04-19T05:44:10;94856.73;;;9.45;82.82
6096;BME280;25081;42.698;23.298;2023-04-19T05:46:20;94849.89;;;9.47;83.48
6096;BME280;25081;42.698;23.298;2023-04-19T05:48:30;94847.43;;;9.64;82.63
6096;BME280;25081;42.698;23.298;2023-04-19T05:50:41;94850.32;;;9.62;82.75
6096;BME280;25081;42.698;23.298;2023-04-19T05:52:51;94852.98;;;9.71;82.99
6096;BME280;25081;42.698;23.298;2023-04-19T05:55:02;94849.66;;;9.85;82.36
6096;BME280;25081;42.698;23.298;2023-04-19T05:57:12;94851.19;;;9.84;81.62
6096;BME280;25081;42.698;23.298;2023-04-19T05:59:23;94847.47;;;9.94;81.75
6096;BME280;25081;42.698;23.298;2023-04-19T06:01:33;94843.78;;;10.04;81.07
6096;BME280;25081;42.698;23.298;2023-04-19T06:03:44;94848.87;;;10.06;80.72
6096;BME280;25081;42.698;23.298;2023-04-19T06:05:54;94851.73;;;10.22;79.93
6096;BME280;25081;42.698;23.298;2023-04-19T06:08:05;94851.28;;;10.35;79.55
6096;BME280;25081;42.698;23.298;2023-04-19T06:10:17;94853.72;;;10.36;79.19
6096;BME280;25081;42.698;23.298;2023-04-19T06:12:27;94856.09;;;10.56;78.58
6096;BME280;25081;42.698;23.298;2023-04-19T06:14:38;94854.43;;;10.64;78.27
6096;BME280;25081;42.698;23.298;2023-04-19T06:16:48;94849.34;;;10.74;77.86
6096;BME280;25081;42.698;23.298;2023-04-19T06:18:59;94855.22;;;10.97;77.03
6096;BME280;25081;42.698;23.298;2023-04-19T06:21:10;94854.69;;;10.86;76.93
6096;BME280;25081;42.698;23.298;2023-04-19T06:23:20;94851.05;;;10.57;77.42
6096;BME280;25081;42.698;23.298;2023-04-19T06:25:31;94854.63;;;10.72;77.97
6096;BME280;25081;42.698;23.298;2023-04-19T06:27:41;94858.59;;;10.81;78.07
6096;BME280;25081;42.698;23.298;2023-04-19T06:29:51;94853.22;;;11.02;76.95
6096;BME280;25081;42.698;23.298;2023-04-19T06:32:02;94851.69;;;10.82;77.08
6096;BME280;25081;42.698;23.298;2023-04-19T06:34:12;94854.88;;;10.94;76.98
6096;BME280;25081;42.698;23.298;2023-04-19T06:36:23;94860.52;;;11.06;76.73
6096;BME280;25081;42.698;23.298;2023-04-19T06:38:33;94853.48;;;11.38;75.35
6096;BME280;25081;42.698;23.298;2023-04-19T06:40:44;94862.02;;;11.61;73.92
6096;BME280;25081;42.698;23.298;2023-04-19T06:42:55;94862.02;;;11.61;74.34
6096;BME280;25081;42.698;23.298;2023-04-19T06:45:08;94865.27;;;11.77;73.47
6096;BME280;25081;42.698;23.298;2023-04-19T06:47:18;94856.64;;;11.72;72.95
6096;BME280;25081;42.698;23.298;2023-04-19T06:49:29;94866.72;;;11.94;72.64
6096;BME280;25081;42.698;23.298;2023-04-19T06:51:39;94869.67;;;11.81;72.64
6096;BME280;25081;42.698;23.298;2023-04-19T06:53:50;94859.67;;;11.64;72.82
6096;BME280;25081;42.698;23.298;2023-04-19T06:56:01;94860.91;;;11.47;74.23
6096;BME280;25081;42.698;23.298;2023-04-19T06:58:11;94862.09;;;11.40;74.85
6096;BME280;25081;42.698;23.298;2023-04-19T07:00:23;94867.65;;;11.03;75.77
6096;BME280;25081;42.698;23.298;2023-04-19T07:02:34;94866.31;;;11.15;75.46
6096;BME280;25081;42.698;23.298;2023-04-19T07:04:44;94868.75;;;11.52;75.26
6096;BME280;25081;42.698;23.298;2023-04-19T07:06:55;94869.73;;;11.60;74.10
6096;BME280;25081;42.698;23.298;2023-04-19T07:09:05;94869.27;;;11.16;74.88
6096;BME280;25081;42.698;23.298;2023-04-19T07:11:16;94871.31;;;11.23;75.08
6096;BME280;25081;42.698;23.298;2023-04-19T07:13:26;94874.66;;;11.07;75.59
6096;BME280;25081;42.698;23.298;2023-04-19T07:15:37;94870.66;;;11.18;75.35
6096;BME280;25081;42.698;23.298;2023-04-19T07:17:47;94871.26;;;11.32;74.01
6096;BME280;25081;42.698;23.298;2023-04-19T07:19:57;94875.38;;;11.49;73.24
6096;BME280;25081;42.698;23.298;2023-04-19T07:22:08;94872.19;;;11.50;73.49
6096;BME280;25081;42.698;23.298;2023-04-19T07:24:18;94873.98;;;11.58;72.59
6096;BME280;25081;42.698;23.298;2023-04-19T07:26:29;94876.05;;;11.56;72.82
6096;BME280;25081;42.698;23.298;2023-04-19T07:28:40;94875.60;;;11.59;72.68
6096;BME280;25081;42.698;23.298;2023-04-19T07:30:51;94879.02;;;11.45;73.33
6096;BME280;25081;42.698;23.298;2023-04-19T07:33:01;94877.97;;;11.46;74.01
6096;BME280;25081;42.698;23.298;2023-04-19T07:35:13;94877.14;;;11.58;73.67
6096;BME280;25081;42.698;23.298;2023-04-19T07:37:24;94873.88;;;11.67;73.49
6096;BME280;25081;42.698;23.298;2023-04-19T07:39:35;94875.88;;;11.37;73.55
6096;BME280;25081;42.698;23.298;2023-04-19T07:41:46;94872.41;;;11.36;73.92
6096;BME280;25081;42.698;23.298;2023-04-19T07:43:56;94875.52;;;11.57;73.40
6096;BME280;25081;42.698;23.298;2023-04-19T07:46:10;94877.84;;;11.88;72.32
6096;BME280;25081;42.698;23.298;2023-04-19T07:48:21;94878.83;;;12.11;71.17
6096;BME280;25081;42.698;23.298;2023-04-19T07:50:32;94881.58;;;12.16;70.91
6096;BME280;25081;42.698;23.298;2023-04-19T07:52:43;94880.77;;;12.01;70.74
6096;BME280;25081;42.698;23.298;2023-04-19T07:54:54;94882.08;;;11.63;72.25
6096;BME280;25081;42.698;23.298;2023-04-19T07:57:04;94873.81;;;11.76;72.19
6096;BME280;25081;42.698;23.298;2023-04-19T07:59:15;94879.23;;;11.91;72.12
6096;BME280;25081;42.698;23.298;2023-04-19T08:01:25;94876.44;;;11.97;71.13
6096;BME280;25081;42.698;23.298;2023-04-19T08:03:36;94880.36;;;12.07;71.22
6096;BME280;25081;42.698;23.298;2023-04-19T08:05:47;94874.48;;;11.69;71.71
6096;BME280;25081;42.698;23.298;2023-04-19T08:07:58;94878.58;;;11.98;71.10
6096;BME280;25081;42.698;23.298;2023-04-19T08:10:10;94881.17;;;12.07;70.97
6096;BME280;25081;42.698;23.298;2023-04-19T08:12:20;94874.73;;;12.20;70.00
6096;BME280;25081;42.698;23.298;2023-04-19T08:14:31;94875.74;;;12.16;70.31
6096;BME280;25081;42.698;23.298;2023-04-19T08:16:42;94877.16;;;12.21;70.35
6096;BME280;25081;42.698;23.298;2023-04-19T08:18:53;94872.56;;;12.62;69.76
6096;BME280;25081;42.698;23.298;2023-04-19T08:21:06;94877.27;;;12.55;68.85
6096;BME280;25081;42.698;23.298;2023-04-19T08:23:17;94876.87;;;12.35;68.85
6096;BME280;25081;42.698;23.298;2023-04-19T08:25:27;94873.06;;;12.30;69.16
6096;BME280;25081;42.698;23.298;2023-04-19T08:27:38;94873.22;;;12.38;68.70
6096;BME280;25081;42.698;23.298;2023-04-19T08:29:48;94882.28;;;12.37;69.37
6096;BME280;25081;42.698;23.298;2023-04-19T08:31:59;94874.91;;;12.44;69.03
6096;BME280;25081;42.698;23.298;2023-04-19T08:34:10;94879.50;;;12.75;68.48
6096;BME280;25081;42.698;23.298;2023-04-19T08:36:21;94874.47;;;12.78;67.53
6096;BME280;25081;42.698;23.298;2023-04-19T08:38:32;94869.28;;;12.88;66.90
6096;BME280;25081;42.698;23.298;2023-04-19T08:40:45;94869.71;;;13.14;66.37
6096;BME280;25081;42.698;23.298;2023-04-19T08:42:54;94864.28;;;13.42;65.07
6096;BME280;25081;42.698;23.298;2023-04-19T08:45:07;94863.83;;;13.14;65.66
6096;BME280;25081;42.698;23.298;2023-04-19T08:47:17;94859.03;;;13.16;65.83
6096;BME280;25081;42.698;23.298;2023-04-19T08:49:29;94858.45;;;13.48;64.31
6096;BME280;25081;42.698;23.298;2023-04-19T08:51:39;94857.78;;;13.77;63.68
6096;BME280;25081;42.698;23.298;2023-04-19T08:53:50;94848.08;;;13.93;63.31
6096;BME280;25081;42.698;23.298;2023-04-19T08:56:01;94853.59;;;14.06;62.82
6096;BME280;25081;42.698;23.298;2023-04-19T08:58:11;94852.10;;;13.93;63.19
6096;BME280;25081;42.698;23.298;2023-04-19T09:00:23;94853.99;;;13.73;63.97
6096;BME280;25081;42.698;23.298;2023-04-19T09:02:46;94854.70;;;13.88;63.27
6096;BME280;25081;42.698;23.298;2023-04-19T09:04:57;94851.04;;;13.94;62.22
6096;BME280;25081;42.698;23.298;2023-04-19T09:07:07;94855.55;;;14.37;61.14
6096;BME280;25081;42.698;23.298;2023-04-19T09:09:18;94839.02;;;14.67;59.95
6096;BME280;25081;42.698;23.298;2023-04-19T09:14:08;94834.94;;;15.29;59.56
6096;BME280;25081;42.698;23.298;2023-04-19T09:16:25;94832.92;;;15.49;57.66
6096;BME280;25081;42.698;23.298;2023-04-19T09:18:38;94834.95;;;15.31;57.84
6096;BME280;25081;42.698;23.298;2023-04-19T09:20:47;94831.59;;;15.51;56.49
6096;BME280;25081;42.698;23.298;2023-04-19T09:23:04;94831.58;;;16.74;52.99
6096;BME280;25081;42.698;23.298;2023-04-19T09:25:25;94831.58;;;16.74;52.99
6096;BME280;25081;42.698;23.298;2023-04-19T09:27:36;94824.27;;;16.62;54.13
6096;BME280;25081;42.698;23.298;2023-04-19T09:29:52;94822.17;;;17.37;51.35
6096;BME280;25081;42.698;23.298;2023-04-19T09:32:03;94818.59;;;18.42;48.85
6096;BME280;25081;42.698;23.298;2023-04-19T09:34:14;94818.83;;;18.53;47.91
6096;BME280;25081;42.698;23.298;2023-04-19T09:36:29;94819.96;;;17.55;51.29
6096;BME280;25081;42.698;23.298;2023-04-19T09:38:47;94821.22;;;18.57;48.38
6096;BME280;25081;42.698;23.298;2023-04-19T09:41:07;94820.45;;;18.49;48.08
6096;BME280;25081;42.698;23.298;2023-04-19T09:43:23;94820.09;;;18.12;49.08
6096;BME280;25081;42.698;23.298;2023-04-19T09:45:41;94820.41;;;18.65;47.46
6096;BME280;25081;42.698;23.298;2023-04-19T09:48:02;94819.59;;;18.59;46.92
6096;BME280;25081;42.698;23.298;2023-04-19T09:50:12;94818.22;;;18.10;48.31
6096;BME280;25081;42.698;23.298;2023-04-19T09:52:23;94815.26;;;18.09;47.08
6096;BME280;25081;42.698;23.298;2023-04-19T09:54:33;94814.97;;;18.15;47.83
6096;BME280;25081;42.698;23.298;2023-04-19T09:56:44;94803.91;;;20.14;44.38
6096;BME280;25081;42.698;23.298;2023-04-19T09:58:54;94795.25;;;21.11;42.08
6096;BME280;25081;42.698;23.298;2023-04-19T10:01:05;94793.34;;;21.11;41.83
6096;BME280;25081;42.698;23.298;2023-04-19T10:03:16;94790.20;;;20.50;43.38
6096;BME280;25081;42.698;23.298;2023-04-19T10:05:26;94794.14;;;20.18;44.07
6096;BME280;25081;42.698;23.298;2023-04-19T10:07:36;94794.39;;;19.95;43.50
6096;BME280;25081;42.698;23.298;2023-04-19T10:09:47;94795.48;;;18.75;45.62
6096;BME280;25081;42.698;23.298;2023-04-19T10:11:58;94789.45;;;18.44;46.56
6096;BME280;25081;42.698;23.298;2023-04-19T10:14:09;94786.83;;;19.10;45.60
6096;BME280;25081;42.698;23.298;2023-04-19T10:16:19;94785.06;;;19.27;45.59
6096;BME280;25081;42.698;23.298;2023-04-19T10:18:29;94790.86;;;19.73;44.52
6096;BME280;25081;42.698;23.298;2023-04-19T10:20:46;94786.78;;;19.97;43.09
6096;BME280;25081;42.698;23.298;2023-04-19T10:22:52;94781.09;;;20.63;42.52
6096;BME280;25081;42.698;23.298;2023-04-19T10:25:10;94788.70;;;19.72;43.41
6096;BME280;25081;42.698;23.298;2023-04-19T10:27:23;94786.09;;;19.89;43.48
6096;BME280;25081;42.698;23.298;2023-04-19T10:29:54;94788.75;;;19.07;44.06
6096;BME280;25081;42.698;23.298;2023-04-19T10:32:05;94782.42;;;19.48;43.32
6096;BME280;25081;42.698;23.298;2023-04-19T10:34:16;94780.98;;;19.61;43.45
6096;BME280;25081;42.698;23.298;2023-04-19T10:36:28;94779.78;;;19.43;43.71
6096;BME280;25081;42.698;23.298;2023-04-19T10:38:39;94771.91;;;20.40;41.33
6096;BME280;25081;42.698;23.298;2023-04-19T10:40:59;94771.09;;;20.20;41.67
6096;BME280;25081;42.698;23.298;2023-04-19T10:43:16;94776.45;;;19.80;43.40
6096;BME280;25081;42.698;23.298;2023-04-19T10:45:33;94765.72;;;19.43;43.00
6096;BME280;25081;42.698;23.298;2023-04-19T10:47:44;94761.91;;;18.42;45.19
6096;BME280;25081;42.698;23.298;2023-04-19T10:49:54;94753.70;;;18.63;45.69
6096;BME280;25081;42.698;23.298;2023-04-19T10:52:05;94760.62;;;18.32;46.12
6096;BME280;25081;42.698;23.298;2023-04-19T10:54:28;94752.42;;;18.92;44.29
6096;BME280;25081;42.698;23.298;2023-04-19T10:59:32;94749.16;;;19.24;44.66
6096;BME280;25081;42.698;23.298;2023-04-19T11:01:49;94750.28;;;19.18;43.11
6096;BME280;25081;42.698;23.298;2023-04-19T11:04:00;94750.95;;;18.73;45.31
6096;BME280;25081;42.698;23.298;2023-04-19T11:06:17;94749.63;;;18.68;45.26
6096;BME280;25081;42.698;23.298;2023-04-19T11:08:28;94749.03;;;18.76;43.81
6096;BME280;25081;42.698;23.298;2023-04-19T11:10:39;94743.66;;;17.67;45.67
6096;BME280;25081;42.698;23.298;2023-04-19T11:12:49;94735.86;;;17.67;45.67
6096;BME280;25081;42.698;23.298;2023-04-19T11:15:00;94742.59;;;17.55;47.65
6096;BME280;25081;42.698;23.298;2023-04-19T11:17:17;94739.34;;;17.76;46.99
6096;BME280;25081;42.698;23.298;2023-04-19T11:19:27;94739.34;;;17.76;46.99
6096;BME280;25081;42.698;23.298;2023-04-19T11:21:40;94737.83;;;18.09;46.38
6096;BME280;25081;42.698;23.298;2023-04-19T11:24:05;94737.83;;;18.09;46.38
6096;BME280;25081;42.698;23.298;2023-04-19T11:26:16;94733.81;;;18.01;46.65
6096;BME280;25081;42.698;23.298;2023-04-19T11:28:26;94735.55;;;18.29;44.92
6096;BME280;25081;42.698;23.298;2023-04-19T11:30:37;94735.55;;;18.29;44.92
6096;BME280;25081;42.698;23.298;2023-04-19T11:32:48;94766.46;;;18.49;45.24
6096;BME280;25081;42.698;23.298;2023-04-19T11:34:58;94735.00;;;18.29;44.77
6096;BME280;25081;42.698;23.298;2023-04-19T11:37:09;94736.66;;;18.25;45.08
6096;BME280;25081;42.698;23.298;2023-04-19T11:39:20;94721.27;;;18.25;44.10
6096;BME280;25081;42.698;23.298;2023-04-19T11:41:36;94721.27;;;17.77;44.61
6096;BME280;25081;42.698;23.298;2023-04-19T11:43:47;94734.59;;;18.05;44.68